sensor_id;sensor_type;location;lat;lon;timestamp;P1;durP1;ratioP1;P2;durP2;ratioP2
50205;SDS011;36098;48.390;10.856;2024-03-08T00:02:02;7.07;;;3.88;;
50205;SDS011;36098;48.390;10.856;2024-03-08T00:04:28;5.82;;;4.00;;
50205;SDS011;36098;48.390;10.856;2024-03-08T00:06:53;6.55;;;4.05;;
50205;SDS011;36098;48.390;10.856;2024-03-08T00:09:18;6.43;;;3.70;;
50205;SDS011;36098;48.390;10.856;2024-03-08T00:11:44;7.38;;;4.00;;
50205;SDS011;36098;48.390;10.856;2024-03-08T00:14:09;5.68;;;3.70;;
50205;SDS011;36098;48.390;10.856;2024-03-08T00:16:34;5.00;;;3.65;;
50205;SDS011;36098;48.390;10.856;2024-03-08T00:19:03;5.75;;;3.80;;
50205;SDS011;36098;48.390;10.856;2024-03-08T00:21:29;6.22;;;3.78;;
50205;SDS011;36098;48.390;10.856;2024-03-08T00:23:57;9.20;;;4.10;;
50205;SDS011;36098;48.390;10.856;2024-03-08T00:26:23;5.03;;;3.45;;
50205;SDS011;36098;48.390;10.856;2024-03-08T00:28:48;7.13;;;4.20;;
50205;SDS011;36098;48.390;10.856;2024-03-08T00:31:14;6.05;;;3.70;;
50205;SDS011;36098;48.390;10.856;2024-03-08T00:33:41;4.82;;;3.58;;
50205;SDS011;36098;48.390;10.856;2024-03-08T00:36:07;5.70;;;3.63;;
50205;SDS011;36098;48.390;10.856;2024-03-08T00:38:32;5.57;;;3.60;;
50205;SDS011;36098;48.390;10.856;2024-03-08T00:40:59;5.32;;;3.88;;
50205;SDS011;36098;48.390;10.856;2024-03-08T00:43:24;6.60;;;3.55;;
50205;SDS011;36098;48.390;10.856;2024-03-08T00:45:49;6.60;;;3.65;;
50205;SDS011;36098;48.390;10.856;2024-03-08T00:48:15;5.28;;;3.58;;
50205;SDS011;36098;48.390;10.856;2024-03-08T00:50:40;5.43;;;3.80;;
50205;SDS011;36098;48.390;10.856;2024-03-08T00:53:05;5.95;;;3.80;;
50205;SDS011;36098;48.390;10.856;2024-03-08T00:55:31;4.68;;;3.53;;
50205;SDS011;36098;48.390;10.856;2024-03-08T00:57:56;6.38;;;3.95;;
50205;SDS011;36098;48.390;10.856;2024-03-08T01:00:23;5.05;;;3.22;;
50205;SDS011;36098;48.390;10.856;2024-03-08T01:02:49;7.45;;;3.83;;
50205;SDS011;36098;48.390;10.856;2024-03-08T01:05:14;5.78;;;3.95;;
50205;SDS011;36098;48.390;10.856;2024-03-08T01:07:39;8.13;;;4.03;;
50205;SDS011;36098;48.390;10.856;2024-03-08T01:10:05;4.75;;;3.35;;
50205;SDS011;36098;48.390;10.856;2024-03-08T01:12:34;5.78;;;3.67;;
50205;SDS011;36098;48.390;10.856;2024-03-08T01:15:00;6.03;;;4.13;;
50205;SDS011;36098;48.390;10.856;2024-03-08T01:17:25;5.28;;;3.63;;
50205;SDS011;36098;48.390;10.856;2024-03-08T01:19:51;5.72;;;3.72;;
50205;SDS011;36098;48.390;10.856;2024-03-08T01:22:16;5.45;;;3.60;;
50205;SDS011;36098;48.390;10.856;2024-03-08T01:24:41;6.15;;;3.80;;
50205;SDS011;36098;48.390;10.856;2024-03-08T01:27:06;5.57;;;3.60;;
50205;SDS011;36098;48.390;10.856;2024-03-08T01:29:34;5.55;;;3.53;;
50205;SDS011;36098;48.390;10.856;2024-03-08T01:31:59;6.60;;;3.70;;
50205;SDS011;36098;48.390;10.856;2024-03-08T01:34:26;4.55;;;3.45;;
50205;SDS011;36098;48.390;10.856;2024-03-08T01:36:53;5.22;;;3.30;;
50205;SDS011;36098;48.390;10.856;2024-03-08T01:39:20;6.03;;;3.40;;
50205;SDS011;36098;48.390;10.856;2024-03-08T01:41:47;8.00;;;3.92;;
50205;SDS011;36098;48.390;10.856;2024-03-08T01:44:12;7.50;;;3.72;;
50205;SDS011;36098;48.390;10.856;2024-03-08T01:46:42;5.75;;;3.80;;
50205;SDS011;36098;48.390;10.856;2024-03-08T01:49:09;6.40;;;3.35;;
50205;SDS011;36098;48.390;10.856;2024-03-08T01:51:35;6.47;;;3.40;;
50205;SDS011;36098;48.390;10.856;2024-03-08T01:54:01;5.53;;;4.03;;
50205;SDS011;36098;48.390;10.856;2024-03-08T01:56:28;5.82;;;3.72;;
50205;SDS011;36098;48.390;10.856;2024-03-08T01:58:54;5.55;;;3.53;;
50205;SDS011;36098;48.390;10.856;2024-03-08T02:01:20;5.63;;;3.60;;
50205;SDS011;36098;48.390;10.856;2024-03-08T02:03:45;4.82;;;3.22;;
50205;SDS011;36098;48.390;10.856;2024-03-08T02:06:11;5.57;;;3.50;;
50205;SDS011;36098;48.390;10.856;2024-03-08T02:08:38;6.03;;;3.50;;
50205;SDS011;36098;48.390;10.856;2024-03-08T02:11:03;5.20;;;3.83;;
50205;SDS011;36098;48.390;10.856;2024-03-08T02:13:29;4.57;;;3.35;;
50205;SDS011;36098;48.390;10.856;2024-03-08T02:15:58;5.35;;;3.70;;
50205;SDS011;36098;48.390;10.856;2024-03-08T02:18:25;6.20;;;3.85;;
50205;SDS011;36098;48.390;10.856;2024-03-08T02:23:23;4.82;;;3.53;;
50205;SDS011;36098;48.390;10.856;2024-03-08T02:25:50;4.97;;;3.28;;
50205;SDS011;36098;48.390;10.856;2024-03-08T02:28:16;7.93;;;3.47;;
50205;SDS011;36098;48.390;10.856;2024-03-08T02:30:43;4.82;;;3.45;;
50205;SDS011;36098;48.390;10.856;2024-03-08T02:33:09;5.20;;;3.78;;
50205;SDS011;36098;48.390;10.856;2024-03-08T02:35:34;6.00;;;3.95;;
50205;SDS011;36098;48.390;10.856;2024-03-08T02:38:01;6.10;;;3.97;;
50205;SDS011;36098;48.390;10.856;2024-03-08T02:40:29;5.45;;;3.50;;
50205;SDS011;36098;48.390;10.856;2024-03-08T02:42:55;5.43;;;3.78;;
50205;SDS011;36098;48.390;10.856;2024-03-08T02:45:20;4.82;;;3.17;;
50205;SDS011;36098;48.390;10.856;2024-03-08T02:47:45;6.25;;;3.78;;
50205;SDS011;36098;48.390;10.856;2024-03-08T02:50:11;5.60;;;3.58;;
50205;SDS011;36098;48.390;10.856;2024-03-08T02:52:36;4.85;;;3.50;;
50205;SDS011;36098;48.390;10.856;2024-03-08T02:55:02;5.43;;;3.47;;
50205;SDS011;36098;48.390;10.856;2024-03-08T02:57:27;4.82;;;3.40;;
50205;SDS011;36098;48.390;10.856;2024-03-08T02:59:53;4.72;;;3.40;;
50205;SDS011;36098;48.390;10.856;2024-03-08T03:02:20;4.85;;;3.47;;
50205;SDS011;36098;48.390;10.856;2024-03-08T03:04:46;5.25;;;3.28;;
50205;SDS011;36098;48.390;10.856;2024-03-08T03:07:11;4.57;;;3.28;;
50205;SDS011;36098;48.390;10.856;2024-03-08T03:09:37;5.38;;;3.83;;
50205;SDS011;36098;48.390;10.856;2024-03-08T03:12:02;5.85;;;3.40;;
50205;SDS011;36098;48.390;10.856;2024-03-08T03:14:27;5.20;;;3.80;;
50205;SDS011;36098;48.390;10.856;2024-03-08T03:16:53;4.85;;;3.60;;
50205;SDS011;36098;48.390;10.856;2024-03-08T03:19:19;4.85;;;3.30;;
50205;SDS011;36098;48.390;10.856;2024-03-08T03:21:45;5.30;;;3.50;;
50205;SDS011;36098;48.390;10.856;2024-03-08T03:24:11;8.30;;;3.85;;
50205;SDS011;36098;48.390;10.856;2024-03-08T03:26:37;4.22;;;3.08;;
50205;SDS011;36098;48.390;10.856;2024-03-08T03:29:06;7.22;;;4.13;;
50205;SDS011;36098;48.390;10.856;2024-03-08T03:31:33;5.75;;;3.70;;
50205;SDS011;36098;48.390;10.856;2024-03-08T03:33:59;5.05;;;3.35;;
50205;SDS011;36098;48.390;10.856;2024-03-08T03:36:27;6.15;;;4.20;;
50205;SDS011;36098;48.390;10.856;2024-03-08T03:38:53;5.00;;;3.35;;
50205;SDS011;36098;48.390;10.856;2024-03-08T03:41:30;6.85;;;3.50;;
50205;SDS011;36098;48.390;10.856;2024-03-08T03:43:55;6.68;;;3.72;;
50205;SDS011;36098;48.390;10.856;2024-03-08T03:46:20;6.57;;;3.50;;
50205;SDS011;36098;48.390;10.856;2024-03-08T03:48:45;6.20;;;3.53;;
50205;SDS011;36098;48.390;10.856;2024-03-08T03:51:11;6.60;;;3.90;;
50205;SDS011;36098;48.390;10.856;2024-03-08T03:53:37;5.75;;;3.40;;
50205;SDS011;36098;48.390;10.856;2024-03-08T03:56:02;4.00;;;2.97;;
50205;SDS011;36098;48.390;10.856;2024-03-08T03:58:31;4.63;;;3.13;;
50205;SDS011;36098;48.390;10.856;2024-03-08T04:00:57;6.03;;;3.30;;
50205;SDS011;36098;48.390;10.856;2024-03-08T04:03:22;4.00;;;3.00;;
50205;SDS011;36098;48.390;10.856;2024-03-08T04:05:47;4.28;;;3.03;;
50205;SDS011;36098;48.390;10.856;2024-03-08T04:08:13;4.95;;;3.33;;
50205;SDS011;36098;48.390;10.856;2024-03-08T04:10:39;4.65;;;2.97;;
50205;SDS011;36098;48.390;10.856;2024-03-08T04:13:06;3.75;;;2.58;;
50205;SDS011;36098;48.390;10.856;2024-03-08T04:15:32;4.57;;;2.97;;
50205;SDS011;36098;48.390;10.856;2024-03-08T04:17:57;4.38;;;3.13;;
50205;SDS011;36098;48.390;10.856;2024-03-08T04:20:22;3.58;;;2.83;;
50205;SDS011;36098;48.390;10.856;2024-03-08T04:22:47;4.15;;;2.63;;
50205;SDS011;36098;48.390;10.856;2024-03-08T04:25:14;5.03;;;3.30;;
50205;SDS011;36098;48.390;10.856;2024-03-08T04:27:39;4.38;;;2.67;;
50205;SDS011;36098;48.390;10.856;2024-03-08T04:30:05;4.63;;;3.03;;
50205;SDS011;36098;48.390;10.856;2024-03-08T04:32:34;4.82;;;3.30;;
50205;SDS011;36098;48.390;10.856;2024-03-08T04:35:00;5.72;;;3.42;;
50205;SDS011;36098;48.390;10.856;2024-03-08T04:37:26;6.50;;;3.92;;
50205;SDS011;36098;48.390;10.856;2024-03-08T04:39:54;4.82;;;3.42;;
50205;SDS011;36098;48.390;10.856;2024-03-08T04:42:20;6.38;;;3.60;;
50205;SDS011;36098;48.390;10.856;2024-03-08T04:44:45;4.60;;;3.25;;
50205;SDS011;36098;48.390;10.856;2024-03-08T04:47:11;5.20;;;3.47;;
50205;SDS011;36098;48.390;10.856;2024-03-08T04:49:36;6.07;;;3.75;;
50205;SDS011;36098;48.390;10.856;2024-03-08T04:52:02;5.80;;;3.78;;
50205;SDS011;36098;48.390;10.856;2024-03-08T04:54:28;4.43;;;3.40;;
50205;SDS011;36098;48.390;10.856;2024-03-08T04:56:54;5.15;;;3.50;;
50205;SDS011;36098;48.390;10.856;2024-03-08T04:59:19;4.72;;;3.42;;
50205;SDS011;36098;48.390;10.856;2024-03-08T05:01:45;4.80;;;3.42;;
50205;SDS011;36098;48.390;10.856;2024-03-08T05:04:10;5.00;;;3.33;;
50205;SDS011;36098;48.390;10.856;2024-03-08T05:06:35;4.95;;;3.35;;
50205;SDS011;36098;48.390;10.856;2024-03-08T05:09:01;4.93;;;3.50;;
50205;SDS011;36098;48.390;10.856;2024-03-08T05:11:44;5.90;;;3.35;;
50205;SDS011;36098;48.390;10.856;2024-03-08T05:14:11;7.47;;;3.70;;
50205;SDS011;36098;48.390;10.856;2024-03-08T05:16:41;8.00;;;3.58;;
50205;SDS011;36098;48.390;10.856;2024-03-08T05:19:07;9.10;;;3.67;;
50205;SDS011;36098;48.390;10.856;2024-03-08T05:21:32;5.78;;;3.80;;
50205;SDS011;36098;48.390;10.856;2024-03-08T05:23:58;7.45;;;4.45;;
50205;SDS011;36098;48.390;10.856;2024-03-08T05:26:23;6.28;;;3.60;;
50205;SDS011;36098;48.390;10.856;2024-03-08T05:28:48;4.70;;;3.30;;
50205;SDS011;36098;48.390;10.856;2024-03-08T05:31:20;5.43;;;3.53;;
50205;SDS011;36098;48.390;10.856;2024-03-08T05:33:49;6.32;;;2.97;;
50205;SDS011;36098;48.390;10.856;2024-03-08T05:36:15;5.68;;;3.08;;
50205;SDS011;36098;48.390;10.856;2024-03-08T05:38:42;5.35;;;3.30;;
50205;SDS011;36098;48.390;10.856;2024-03-08T05:41:08;5.40;;;3.17;;
50205;SDS011;36098;48.390;10.856;2024-03-08T05:43:34;5.15;;;3.20;;
50205;SDS011;36098;48.390;10.856;2024-03-08T05:45:59;5.22;;;3.33;;
50205;SDS011;36098;48.390;10.856;2024-03-08T05:48:24;5.10;;;3.08;;
50205;SDS011;36098;48.390;10.856;2024-03-08T05:50:50;6.15;;;3.17;;
50205;SDS011;36098;48.390;10.856;2024-03-08T05:53:15;6.95;;;3.85;;
50205;SDS011;36098;48.390;10.856;2024-03-08T05:55:40;5.22;;;3.55;;
50205;SDS011;36098;48.390;10.856;2024-03-08T05:58:06;5.53;;;2.78;;
50205;SDS011;36098;48.390;10.856;2024-03-08T06:00:33;4.65;;;2.85;;
50205;SDS011;36098;48.390;10.856;2024-03-08T06:02:59;5.38;;;3.22;;
50205;SDS011;36098;48.390;10.856;2024-03-08T06:05:24;4.30;;;3.15;;
50205;SDS011;36098;48.390;10.856;2024-03-08T06:07:50;5.72;;;2.92;;
50205;SDS011;36098;48.390;10.856;2024-03-08T06:10:18;6.05;;;3.40;;
50205;SDS011;36098;48.390;10.856;2024-03-08T06:12:43;8.20;;;3.60;;
50205;SDS011;36098;48.390;10.856;2024-03-08T06:15:10;8.05;;;3.60;;
50205;SDS011;36098;48.390;10.856;2024-03-08T06:17:40;6.57;;;3.88;;
50205;SDS011;36098;48.390;10.856;2024-03-08T06:20:06;6.90;;;4.25;;
50205;SDS011;36098;48.390;10.856;2024-03-08T06:22:35;9.38;;;3.97;;
50205;SDS011;36098;48.390;10.856;2024-03-08T06:25:08;7.07;;;4.40;;
50205;SDS011;36098;48.390;10.856;2024-03-08T06:27:35;9.07;;;3.65;;
50205;SDS011;36098;48.390;10.856;2024-03-08T06:30:00;6.45;;;3.78;;
50205;SDS011;36098;48.390;10.856;2024-03-08T06:32:26;7.75;;;4.18;;
50205;SDS011;36098;48.390;10.856;2024-03-08T06:34:51;7.40;;;3.90;;
50205;SDS011;36098;48.390;10.856;2024-03-08T06:37:17;6.40;;;3.67;;
50205;SDS011;36098;48.390;10.856;2024-03-08T06:39:46;8.13;;;3.80;;
50205;SDS011;36098;48.390;10.856;2024-03-08T06:42:16;5.82;;;3.80;;
50205;SDS011;36098;48.390;10.856;2024-03-08T06:44:41;6.40;;;3.50;;
50205;SDS011;36098;48.390;10.856;2024-03-08T06:47:13;5.63;;;3.53;;
50205;SDS011;36098;48.390;10.856;2024-03-08T06:49:40;7.05;;;3.50;;
50205;SDS011;36098;48.390;10.856;2024-03-08T06:52:05;6.38;;;3.60;;
50205;SDS011;36098;48.390;10.856;2024-03-08T06:54:31;7.30;;;3.72;;
50205;SDS011;36098;48.390;10.856;2024-03-08T06:56:57;6.18;;;4.07;;
50205;SDS011;36098;48.390;10.856;2024-03-08T06:59:22;5.22;;;3.33;;
50205;SDS011;36098;48.390;10.856;2024-03-08T07:01:48;6.50;;;3.60;;
50205;SDS011;36098;48.390;10.856;2024-03-08T07:04:13;6.13;;;3.58;;
50205;SDS011;36098;48.390;10.856;2024-03-08T07:06:38;5.65;;;3.67;;
50205;SDS011;36098;48.390;10.856;2024-03-08T07:09:05;6.32;;;3.63;;
50205;SDS011;36098;48.390;10.856;2024-03-08T07:11:31;5.68;;;3.75;;
50205;SDS011;36098;48.390;10.856;2024-03-08T07:13:56;5.82;;;3.60;;
50205;SDS011;36098;48.390;10.856;2024-03-08T07:16:23;6.28;;;3.83;;
50205;SDS011;36098;48.390;10.856;2024-03-08T07:18:48;5.57;;;3.70;;
50205;SDS011;36098;48.390;10.856;2024-03-08T07:21:17;5.70;;;3.35;;
50205;SDS011;36098;48.390;10.856;2024-03-08T07:23:42;7.72;;;4.07;;
50205;SDS011;36098;48.390;10.856;2024-03-08T07:26:18;5.50;;;3.67;;
50205;SDS011;36098;48.390;10.856;2024-03-08T07:28:45;6.43;;;3.58;;
50205;SDS011;36098;48.390;10.856;2024-03-08T07:31:10;6.07;;;3.45;;
50205;SDS011;36098;48.390;10.856;2024-03-08T07:33:41;5.25;;;3.42;;
50205;SDS011;36098;48.390;10.856;2024-03-08T07:36:07;5.82;;;3.70;;
50205;SDS011;36098;48.390;10.856;2024-03-08T07:38:33;5.70;;;3.47;;
50205;SDS011;36098;48.390;10.856;2024-03-08T07:40:58;6.90;;;3.42;;
50205;SDS011;36098;48.390;10.856;2024-03-08T07:43:24;7.03;;;3.70;;
50205;SDS011;36098;48.390;10.856;2024-03-08T07:45:50;6.07;;;3.50;;
50205;SDS011;36098;48.390;10.856;2024-03-08T07:48:17;6.78;;;3.92;;
50205;SDS011;36098;48.390;10.856;2024-03-08T07:50:43;7.03;;;4.38;;
50205;SDS011;36098;48.390;10.856;2024-03-08T07:53:08;6.32;;;3.70;;
50205;SDS011;36098;48.390;10.856;2024-03-08T07:55:34;6.50;;;4.07;;
50205;SDS011;36098;48.390;10.856;2024-03-08T07:58:00;7.63;;;4.13;;
50205;SDS011;36098;48.390;10.856;2024-03-08T08:00:26;7.93;;;4.10;;
50205;SDS011;36098;48.390;10.856;2024-03-08T08:02:52;5.00;;;3.30;;
50205;SDS011;36098;48.390;10.856;2024-03-08T08:05:18;5.53;;;3.65;;
50205;SDS011;36098;48.390;10.856;2024-03-08T08:07:44;7.07;;;4.53;;
50205;SDS011;36098;48.390;10.856;2024-03-08T08:10:11;5.85;;;3.50;;
50205;SDS011;36098;48.390;10.856;2024-03-08T08:12:43;6.22;;;3.70;;
50205;SDS011;36098;48.390;10.856;2024-03-08T08:15:09;7.53;;;4.20;;
50205;SDS011;36098;48.390;10.856;2024-03-08T08:17:34;6.97;;;4.40;;
50205;SDS011;36098;48.390;10.856;2024-03-08T08:19:59;7.00;;;3.67;;
50205;SDS011;36098;48.390;10.856;2024-03-08T08:22:25;6.03;;;4.03;;
50205;SDS011;36098;48.390;10.856;2024-03-08T08:24:50;7.57;;;4.20;;
50205;SDS011;36098;48.390;10.856;2024-03-08T08:27:17;5.13;;;3.58;;
50205;SDS011;36098;48.390;10.856;2024-03-08T08:29:42;8.38;;;4.30;;
50205;SDS011;36098;48.390;10.856;2024-03-08T08:32:08;6.05;;;3.85;;
50205;SDS011;36098;48.390;10.856;2024-03-08T08:34:33;6.18;;;3.72;;
50205;SDS011;36098;48.390;10.856;2024-03-08T08:36:58;6.63;;;3.85;;
50205;SDS011;36098;48.390;10.856;2024-03-08T08:39:24;5.82;;;3.97;;
50205;SDS011;36098;48.390;10.856;2024-03-08T08:41:50;6.25;;;3.92;;
50205;SDS011;36098;48.390;10.856;2024-03-08T08:44:16;7.13;;;3.80;;
50205;SDS011;36098;48.390;10.856;2024-03-08T08:46:41;6.07;;;3.63;;
50205;SDS011;36098;48.390;10.856;2024-03-08T08:49:07;5.45;;;3.83;;
50205;SDS011;36098;48.390;10.856;2024-03-08T08:51:35;8.52;;;4.03;;
50205;SDS011;36098;48.390;10.856;2024-03-08T08:54:05;8.95;;;4.32;;
50205;SDS011;36098;48.390;10.856;2024-03-08T08:56:35;6.60;;;4.10;;
50205;SDS011;36098;48.390;10.856;2024-03-08T08:59:01;7.00;;;4.30;;
50205;SDS011;36098;48.390;10.856;2024-03-08T09:01:26;7.22;;;4.00;;
50205;SDS011;36098;48.390;10.856;2024-03-08T09:03:52;6.35;;;4.20;;
50205;SDS011;36098;48.390;10.856;2024-03-08T09:06:17;5.93;;;3.97;;
50205;SDS011;36098;48.390;10.856;2024-03-08T09:08:43;6.50;;;4.18;;
50205;SDS011;36098;48.390;10.856;2024-03-08T09:11:11;5.78;;;3.90;;
50205;SDS011;36098;48.390;10.856;2024-03-08T09:13:37;7.07;;;4.07;;
50205;SDS011;36098;48.390;10.856;2024-03-08T09:16:02;6.55;;;3.70;;
50205;SDS011;36098;48.390;10.856;2024-03-08T09:18:30;7.85;;;4.57;;
50205;SDS011;36098;48.390;10.856;2024-03-08T09:20:55;6.30;;;4.05;;
50205;SDS011;36098;48.390;10.856;2024-03-08T09:23:21;7.90;;;4.47;;
50205;SDS011;36098;48.390;10.856;2024-03-08T09:25:46;7.57;;;4.28;;
50205;SDS011;36098;48.390;10.856;2024-03-08T09:28:11;8.88;;;3.97;;
50205;SDS011;36098;48.390;10.856;2024-03-08T09:30:37;6.47;;;4.00;;
50205;SDS011;36098;48.390;10.856;2024-03-08T09:33:03;6.22;;;3.72;;
50205;SDS011;36098;48.390;10.856;2024-03-08T09:35:29;6.43;;;4.10;;
50205;SDS011;36098;48.390;10.856;2024-03-08T09:37:55;9.82;;;4.70;;
50205;SDS011;36098;48.390;10.856;2024-03-08T09:40:20;6.32;;;4.13;;
50205;SDS011;36098;48.390;10.856;2024-03-08T09:42:48;5.78;;;4.22;;
50205;SDS011;36098;48.390;10.856;2024-03-08T09:45:14;6.47;;;4.30;;
50205;SDS011;36098;48.390;10.856;2024-03-08T09:47:40;6.55;;;4.43;;
50205;SDS011;36098;48.390;10.856;2024-03-08T09:50:07;7.93;;;4.50;;
50205;SDS011;36098;48.390;10.856;2024-03-08T09:52:34;6.70;;;4.50;;
50205;SDS011;36098;48.390;10.856;2024-03-08T09:55:03;6.10;;;4.15;;
50205;SDS011;36098;48.390;10.856;2024-03-08T09:57:31;7.03;;;4.30;;
50205;SDS011;36098;48.390;10.856;2024-03-08T09:59:57;7.45;;;4.65;;
50205;SDS011;36098;48.390;10.856;2024-03-08T10:02:22;6.45;;;4.15;;
50205;SDS011;36098;48.390;10.856;2024-03-08T10:04:48;7.07;;;4.30;;
50205;SDS011;36098;48.390;10.856;2024-03-08T10:07:13;6.57;;;4.38;;
50205;SDS011;36098;48.390;10.856;2024-03-08T10:09:38;7.15;;;4.55;;
50205;SDS011;36098;48.390;10.856;2024-03-08T10:12:04;5.80;;;4.20;;
50205;SDS011;36098;48.390;10.856;2024-03-08T10:14:30;6.32;;;4.63;;
50205;SDS011;36098;48.390;10.856;2024-03-08T10:16:56;6.07;;;4.28;;
50205;SDS011;36098;48.390;10.856;2024-03-08T10:19:24;7.55;;;4.25;;
50205;SDS011;36098;48.390;10.856;2024-03-08T10:21:50;5.68;;;4.15;;
50205;SDS011;36098;48.390;10.856;2024-03-08T10:24:19;6.85;;;4.50;;
50205;SDS011;36098;48.390;10.856;2024-03-08T10:26:44;6.70;;;4.20;;
50205;SDS011;36098;48.390;10.856;2024-03-08T10:29:09;7.47;;;4.40;;
50205;SDS011;36098;48.390;10.856;2024-03-08T10:31:35;6.70;;;4.75;;
50205;SDS011;36098;48.390;10.856;2024-03-08T10:34:00;7.22;;;4.88;;
50205;SDS011;36098;48.390;10.856;2024-03-08T10:36:28;7.32;;;4.63;;
50205;SDS011;36098;48.390;10.856;2024-03-08T10:38:53;6.07;;;4.25;;
50205;SDS011;36098;48.390;10.856;2024-03-08T10:41:21;6.60;;;3.97;;
50205;SDS011;36098;48.390;10.856;2024-03-08T10:49:18;6.15;;;4.55;;
50205;SDS011;36098;48.390;10.856;2024-03-08T10:51:51;7.50;;;4.40;;
50205;SDS011;36098;48.390;10.856;2024-03-08T10:54:17;6.03;;;4.10;;
50205;SDS011;36098;48.390;10.856;2024-03-08T10:56:45;6.68;;;4.38;;
50205;SDS011;36098;48.390;10.856;2024-03-08T10:59:13;7.53;;;4.75;;
50205;SDS011;36098;48.390;10.856;2024-03-08T11:01:40;7.13;;;4.35;;
50205;SDS011;36098;48.390;10.856;2024-03-08T11:04:05;6.80;;;4.15;;
50205;SDS011;36098;48.390;10.856;2024-03-08T11:09:02;6.57;;;4.20;;
50205;SDS011;36098;48.390;10.856;2024-03-08T11:11:32;6.15;;;4.10;;
50205;SDS011;36098;48.390;10.856;2024-03-08T11:13:59;6.72;;;4.40;;
50205;SDS011;36098;48.390;10.856;2024-03-08T11:18:57;8.07;;;4.40;;
50205;SDS011;36098;48.390;10.856;2024-03-08T11:21:29;6.63;;;4.65;;
50205;SDS011;36098;48.390;10.856;2024-03-08T11:24:00;7.32;;;4.55;;
50205;SDS011;36098;48.390;10.856;2024-03-08T11:26:26;6.05;;;4.18;;
50205;SDS011;36098;48.390;10.856;2024-03-08T11:28:51;7.72;;;4.47;;
50205;SDS011;36098;48.390;10.856;2024-03-08T11:33:46;7.18;;;4.43;;
50205;SDS011;36098;48.390;10.856;2024-03-08T11:36:14;6.47;;;4.15;;
50205;SDS011;36098;48.390;10.856;2024-03-08T11:38:47;5.75;;;3.78;;
50205;SDS011;36098;48.390;10.856;2024-03-08T11:43:49;6.30;;;4.40;;
50205;SDS011;36098;48.390;10.856;2024-03-08T11:46:26;6.50;;;4.38;;
50205;SDS011;36098;48.390;10.856;2024-03-08T11:48:54;5.93;;;4.05;;
50205;SDS011;36098;48.390;10.856;2024-03-08T11:51:20;5.80;;;4.22;;
50205;SDS011;36098;48.390;10.856;2024-03-08T11:53:46;5.80;;;3.90;;
50205;SDS011;36098;48.390;10.856;2024-03-08T11:56:17;5.70;;;4.35;;
50205;SDS011;36098;48.390;10.856;2024-03-08T11:58:52;5.97;;;4.20;;
50205;SDS011;36098;48.390;10.856;2024-03-08T12:01:22;5.78;;;4.00;;
50205;SDS011;36098;48.390;10.856;2024-03-08T12:03:57;5.90;;;4.07;;
50205;SDS011;36098;48.390;10.856;2024-03-08T12:06:24;5.63;;;3.83;;
50205;SDS011;36098;48.390;10.856;2024-03-08T12:08:49;6.65;;;4.40;;
50205;SDS011;36098;48.390;10.856;2024-03-08T12:11:15;5.78;;;3.90;;
50205;SDS011;36098;48.390;10.856;2024-03-08T12:13:44;6.22;;;4.30;;
50205;SDS011;36098;48.390;10.856;2024-03-08T12:16:11;4.45;;;3.47;;
50205;SDS011;36098;48.390;10.856;2024-03-08T12:18:37;5.95;;;3.90;;
50205;SDS011;36098;48.390;10.856;2024-03-08T12:23:35;6.88;;;3.90;;
50205;SDS011;36098;48.390;10.856;2024-03-08T12:28:41;5.35;;;3.53;;
50205;SDS011;36098;48.390;10.856;2024-03-08T12:31:09;6.13;;;4.03;;
50205;SDS011;36098;48.390;10.856;2024-03-08T12:33:37;5.35;;;3.67;;
50205;SDS011;36098;48.390;10.856;2024-03-08T12:36:13;5.55;;;3.92;;
50205;SDS011;36098;48.390;10.856;2024-03-08T12:38:43;5.50;;;3.80;;
50205;SDS011;36098;48.390;10.856;2024-03-08T12:41:09;5.55;;;3.75;;
50205;SDS011;36098;48.390;10.856;2024-03-08T12:43:34;6.95;;;3.75;;
50205;SDS011;36098;48.390;10.856;2024-03-08T12:46:00;7.03;;;4.00;;
50205;SDS011;36098;48.390;10.856;2024-03-08T12:48:25;5.88;;;3.85;;
50205;SDS011;36098;48.390;10.856;2024-03-08T12:50:50;6.03;;;3.80;;
50205;SDS011;36098;48.390;10.856;2024-03-08T12:53:17;5.75;;;3.88;;
50205;SDS011;36098;48.390;10.856;2024-03-08T12:55:42;6.07;;;3.80;;
50205;SDS011;36098;48.390;10.856;2024-03-08T12:58:08;5.47;;;3.92;;
50205;SDS011;36098;48.390;10.856;2024-03-08T13:00:34;4.63;;;3.13;;
50205;SDS011;36098;48.390;10.856;2024-03-08T13:03:01;5.50;;;3.40;;
50205;SDS011;36098;48.390;10.856;2024-03-08T13:05:27;5.38;;;3.30;;
50205;SDS011;36098;48.390;10.856;2024-03-08T13:07:53;4.72;;;3.50;;
50205;SDS011;36098;48.390;10.856;2024-03-08T13:10:19;5.15;;;3.50;;
50205;SDS011;36098;48.390;10.856;2024-03-08T13:12:45;5.53;;;3.90;;
50205;SDS011;36098;48.390;10.856;2024-03-08T13:15:10;4.68;;;3.40;;
50205;SDS011;36098;48.390;10.856;2024-03-08T13:17:40;6.38;;;3.70;;
50205;SDS011;36098;48.390;10.856;2024-03-08T13:20:07;4.70;;;3.40;;
50205;SDS011;36098;48.390;10.856;2024-03-08T13:22:33;4.97;;;3.58;;
50205;SDS011;36098;48.390;10.856;2024-03-08T13:24:58;4.57;;;3.40;;
50205;SDS011;36098;48.390;10.856;2024-03-08T13:27:26;5.15;;;3.30;;
50205;SDS011;36098;48.390;10.856;2024-03-08T13:29:54;7.50;;;3.60;;
50205;SDS011;36098;48.390;10.856;2024-03-08T13:32:20;5.45;;;3.50;;
50205;SDS011;36098;48.390;10.856;2024-03-08T13:34:47;4.75;;;3.40;;
50205;SDS011;36098;48.390;10.856;2024-03-08T13:37:12;4.93;;;3.42;;
50205;SDS011;36098;48.390;10.856;2024-03-08T13:39:40;7.70;;;3.67;;
50205;SDS011;36098;48.390;10.856;2024-03-08T13:42:11;4.63;;;3.30;;
50205;SDS011;36098;48.390;10.856;2024-03-08T13:44:47;4.57;;;3.43;;
50205;SDS011;36098;48.390;10.856;2024-03-08T13:47:16;4.68;;;3.47;;
50205;SDS011;36098;48.390;10.856;2024-03-08T13:49:42;5.95;;;3.67;;
50205;SDS011;36098;48.390;10.856;2024-03-08T13:52:08;4.30;;;3.20;;
50205;SDS011;36098;48.390;10.856;2024-03-08T13:54:34;4.63;;;3.42;;
50205;SDS011;36098;48.390;10.856;2024-03-08T13:57:00;6.28;;;3.20;;
50205;SDS011;36098;48.390;10.856;2024-03-08T13:59:30;4.28;;;3.00;;
50205;SDS011;36098;48.390;10.856;2024-03-08T14:01:57;4.10;;;3.00;;
50205;SDS011;36098;48.390;10.856;2024-03-08T14:04:24;5.03;;;3.50;;
50205;SDS011;36098;48.390;10.856;2024-03-08T14:06:51;5.20;;;3.33;;
50205;SDS011;36098;48.390;10.856;2024-03-08T14:09:21;5.50;;;3.42;;
50205;SDS011;36098;48.390;10.856;2024-03-08T14:11:49;4.15;;;2.85;;
50205;SDS011;36098;48.390;10.856;2024-03-08T14:14:15;5.45;;;3.42;;
50205;SDS011;36098;48.390;10.856;2024-03-08T14:16:40;5.57;;;3.60;;
50205;SDS011;36098;48.390;10.856;2024-03-08T14:19:05;4.63;;;3.10;;
50205;SDS011;36098;48.390;10.856;2024-03-08T14:21:34;4.35;;;3.10;;
50205;SDS011;36098;48.390;10.856;2024-03-08T14:23:59;4.65;;;3.08;;
50205;SDS011;36098;48.390;10.856;2024-03-08T14:26:24;4.40;;;3.17;;
50205;SDS011;36098;48.390;10.856;2024-03-08T14:28:52;4.15;;;3.20;;
50205;SDS011;36098;48.390;10.856;2024-03-08T14:31:19;4.25;;;3.05;;
50205;SDS011;36098;48.390;10.856;2024-03-08T14:33:45;4.88;;;3.28;;
50205;SDS011;36098;48.390;10.856;2024-03-08T14:36:14;4.30;;;2.95;;
50205;SDS011;36098;48.390;10.856;2024-03-08T14:38:41;3.78;;;2.80;;
50205;SDS011;36098;48.390;10.856;2024-03-08T14:41:07;4.60;;;3.33;;
50205;SDS011;36098;48.390;10.856;2024-03-08T14:43:32;5.35;;;3.50;;
50205;SDS011;36098;48.390;10.856;2024-03-08T14:45:58;5.07;;;2.88;;
50205;SDS011;36098;48.390;10.856;2024-03-08T14:48:23;5.22;;;3.45;;
50205;SDS011;36098;48.390;10.856;2024-03-08T14:50:48;4.53;;;3.00;;
50205;SDS011;36098;48.390;10.856;2024-03-08T14:53:13;3.92;;;2.80;;